PWSweather.com
Personal Weather Stations
Station Observations
WATERF01
WaterfordIE

WaterfordIE

Lat: 52.2412507, Lon: -7.1414691

Elevation: 65

Station Type: Davis Vantage Vue

www.waterfordweather.com

High Low Average
Temperature 42.1°F5.6°C 35.7°F2.1°C 38.1°F3.4°C
Dew Point 41.8°F5.4°C 35.5°F1.9°C 38.0°F3.3°C
Winds 6.9 mph 11.1 kmh Calm Calm 2.0 mph WSW3.2 kmh WSW
Wind Gusts 11.5 mph18.5 kmh -- 3.0 mph4.8 kmh
Humidity 100% 99% 99%
Pressure 30.27 in1025.1 mb 29.84 in1010.5 mb -
Precipitation 0.01 in0.3 mm - -
Hour Temp Dew Point Humidity Winds Wind Gusts Pressure Precip Precip Rate Daily Precip Total
12:00 AM 42.0°F5.6°C 41.7°F5.4°C 99% 1.2 mph NW1.9 kmh NW 5.8 mph9.3 kmh 29.84 in1010.5 mb - 0.00 in0.0 mm 0.00 in0.0 mm
12:10 AM 41.9°F5.5°C 41.6°F5.3°C 99% Calm Calm 1.2 mph1.9 kmh 29.84 in1010.5 mb - 0.00 in0.0 mm 0.00 in0.0 mm
12:20 AM 41.7°F5.4°C 41.4°F5.2°C 99% Calm Calm 2.3 mph3.7 kmh 29.85 in1010.8 mb - 0.00 in0.0 mm 0.00 in0.0 mm
12:30 AM 41.9°F5.5°C 41.6°F5.3°C 99% 1.2 mph SW1.9 kmh SW 2.3 mph3.7 kmh 29.85 in1010.8 mb - 0.00 in0.0 mm 0.00 in0.0 mm
12:40 AM 42.0°F5.6°C 41.7°F5.4°C 99% Calm Calm 1.2 mph1.9 kmh 29.86 in1011.2 mb - 0.00 in0.0 mm 0.00 in0.0 mm
12:50 AM 42.0°F5.6°C 41.7°F5.4°C 99% Calm Calm 2.3 mph3.7 kmh 29.87 in1011.5 mb - 0.00 in0.0 mm 0.00 in0.0 mm
01:00 AM 42.1°F5.6°C 41.8°F5.4°C 99% 2.3 mph NW3.7 kmh NW 5.8 mph9.3 kmh 29.88 in1011.9 mb - 0.00 in0.0 mm 0.00 in0.0 mm
01:10 AM 42.0°F5.6°C 41.7°F5.4°C 99% Calm Calm -- 29.88 in1011.9 mb - 0.00 in0.0 mm 0.00 in0.0 mm
01:20 AM 41.7°F5.4°C 41.5°F5.3°C 99% 1.2 mph N1.9 kmh N 2.3 mph3.7 kmh 29.89 in1012.2 mb - 0.00 in0.0 mm 0.00 in0.0 mm
01:30 AM 41.5°F5.3°C 41.2°F5.1°C 99% 1.2 mph NNE1.9 kmh NNE 5.8 mph9.3 kmh 29.90 in1012.5 mb - 0.00 in0.0 mm 0.00 in0.0 mm
01:40 AM 41.2°F5.1°C 40.9°F4.9°C 99% Calm Calm 2.3 mph3.7 kmh 29.91 in1012.9 mb - 0.00 in0.0 mm 0.00 in0.0 mm
01:50 AM 40.9°F4.9°C 40.6°F4.8°C 99% Calm Calm -- 29.91 in1012.9 mb - 0.00 in0.0 mm 0.00 in0.0 mm
02:00 AM 40.4°F4.7°C 40.2°F4.6°C 99% Calm Calm -- 29.92 in1013.2 mb - 0.00 in0.0 mm 0.00 in0.0 mm
02:10 AM 40.2°F4.6°C 39.9°F4.4°C 99% 2.3 mph NW3.7 kmh NW 4.6 mph7.4 kmh 29.93 in1013.5 mb - 0.00 in0.0 mm 0.00 in0.0 mm
02:20 AM 40.3°F4.6°C 40.0°F4.4°C 99% 5.8 mph NW9.3 kmh NW 9.2 mph14.8 kmh 29.93 in1013.5 mb - 0.00 in0.0 mm 0.00 in0.0 mm
02:30 AM 40.4°F4.7°C 40.1°F4.5°C 99% 5.8 mph NW9.3 kmh NW 9.2 mph14.8 kmh 29.94 in1013.9 mb - 0.00 in0.0 mm 0.00 in0.0 mm
02:40 AM 40.3°F4.6°C 40.0°F4.4°C 99% 4.6 mph NNW7.4 kmh NNW 8.1 mph13.0 kmh 29.94 in1013.9 mb - 0.00 in0.0 mm 0.00 in0.0 mm
02:50 AM 40.1°F4.5°C 39.8°F4.3°C 99% 2.3 mph NNW3.7 kmh NNW 5.8 mph9.3 kmh 29.95 in1014.2 mb - 0.00 in0.0 mm 0.00 in0.0 mm
03:00 AM 39.9°F4.4°C 39.7°F4.3°C 99% 1.2 mph N1.9 kmh N 2.3 mph3.7 kmh 29.95 in1014.2 mb - 0.00 in0.0 mm 0.00 in0.0 mm
03:10 AM 39.8°F4.3°C 39.5°F4.2°C 99% 2.3 mph NNW3.7 kmh NNW 5.8 mph9.3 kmh 29.95 in1014.2 mb - 0.00 in0.0 mm 0.00 in0.0 mm
03:20 AM 39.7°F4.3°C 39.4°F4.1°C 99% 2.3 mph NW3.7 kmh NW 4.6 mph7.4 kmh 29.96 in1014.6 mb - 0.00 in0.0 mm 0.00 in0.0 mm
03:30 AM 39.6°F4.2°C 39.3°F4.1°C 99% Calm Calm 5.8 mph9.3 kmh 29.97 in1014.9 mb - 0.00 in0.0 mm 0.00 in0.0 mm
03:40 AM 39.2°F4.0°C 38.9°F3.8°C 99% Calm Calm -- 29.97 in1014.9 mb - 0.00 in0.0 mm 0.00 in0.0 mm
03:50 AM 38.9°F3.8°C 38.6°F3.7°C 99% 3.5 mph NNW5.6 kmh NNW 5.8 mph9.3 kmh 29.98 in1015.2 mb - 0.00 in0.0 mm 0.00 in0.0 mm
04:00 AM 38.6°F3.7°C 38.4°F3.6°C 99% Calm Calm 2.3 mph3.7 kmh 29.98 in1015.2 mb - 0.00 in0.0 mm 0.00 in0.0 mm
04:10 AM 38.2°F3.4°C 38.0°F3.3°C 99% Calm Calm -- 29.99 in1015.6 mb - 0.00 in0.0 mm 0.00 in0.0 mm
04:20 AM 37.9°F3.3°C 37.6°F3.1°C 99% Calm Calm -- 29.99 in1015.6 mb - 0.00 in0.0 mm 0.00 in0.0 mm
04:30 AM 37.7°F3.2°C 37.4°F3.0°C 99% Calm Calm -- 30.00 in1015.9 mb - 0.00 in0.0 mm 0.00 in0.0 mm
04:40 AM 37.5°F3.1°C 37.2°F2.9°C 99% Calm Calm -- 30.00 in1015.9 mb - 0.00 in0.0 mm 0.00 in0.0 mm
04:50 AM 37.2°F2.9°C 36.9°F2.7°C 99% 2.3 mph NW3.7 kmh NW 4.6 mph7.4 kmh 30.01 in1016.3 mb - 0.00 in0.0 mm 0.00 in0.0 mm
05:00 AM 37.0°F2.8°C 36.8°F2.7°C 99% 2.3 mph NW3.7 kmh NW 4.6 mph7.4 kmh 30.02 in1016.6 mb - 0.00 in0.0 mm 0.00 in0.0 mm
05:10 AM 37.0°F2.8°C 36.7°F2.6°C 99% 2.3 mph NW3.7 kmh NW 4.6 mph7.4 kmh 30.04 in1017.3 mb - 0.00 in0.0 mm 0.00 in0.0 mm
05:20 AM 37.0°F2.8°C 36.7°F2.6°C 99% Calm Calm -- 30.04 in1017.3 mb - 0.00 in0.0 mm 0.00 in0.0 mm
05:30 AM 37.0°F2.8°C 36.7°F2.6°C 99% Calm Calm 2.3 mph3.7 kmh 30.05 in1017.6 mb - 0.00 in0.0 mm 0.00 in0.0 mm
05:40 AM 37.0°F2.8°C 36.7°F2.6°C 99% 2.3 mph NW3.7 kmh NW 4.6 mph7.4 kmh 30.05 in1017.6 mb - 0.00 in0.0 mm 0.00 in0.0 mm
05:50 AM 37.0°F2.8°C 36.7°F2.6°C 99% 2.3 mph NW3.7 kmh NW 6.9 mph11.1 kmh 30.06 in1017.9 mb - 0.00 in0.0 mm 0.00 in0.0 mm
06:00 AM 37.0°F2.8°C 36.7°F2.6°C 99% 3.5 mph NNW5.6 kmh NNW 5.8 mph9.3 kmh 30.07 in1018.3 mb - 0.00 in0.0 mm 0.00 in0.0 mm
06:10 AM 37.1°F2.8°C 36.8°F2.7°C 99% 2.3 mph NW3.7 kmh NW 2.3 mph3.7 kmh 30.07 in1018.3 mb - 0.00 in0.0 mm 0.00 in0.0 mm
06:20 AM 37.2°F2.9°C 36.9°F2.7°C 99% 1.2 mph NW1.9 kmh NW 4.6 mph7.4 kmh 30.07 in1018.3 mb - 0.00 in0.0 mm 0.00 in0.0 mm
06:30 AM 37.3°F2.9°C 37.0°F2.8°C 99% 4.6 mph NW7.4 kmh NW 8.1 mph13.0 kmh 30.08 in1018.6 mb - 0.00 in0.0 mm 0.00 in0.0 mm
06:40 AM 37.3°F2.9°C 37.0°F2.8°C 99% 1.2 mph NW1.9 kmh NW 2.3 mph3.7 kmh 30.08 in1018.6 mb - 0.00 in0.0 mm 0.00 in0.0 mm
06:50 AM 37.4°F3.0°C 37.1°F2.8°C 99% Calm Calm -- 30.09 in1019.0 mb - 0.00 in0.0 mm 0.00 in0.0 mm
07:00 AM 37.4°F3.0°C 37.2°F2.9°C 99% 3.5 mph NW5.6 kmh NW 5.8 mph9.3 kmh 30.10 in1019.3 mb - 0.00 in0.0 mm 0.00 in0.0 mm
07:10 AM 37.2°F2.9°C 37.0°F2.8°C 99% 3.5 mph WNW5.6 kmh WNW 5.8 mph9.3 kmh 30.11 in1019.6 mb - 0.00 in0.0 mm 0.00 in0.0 mm
07:20 AM 36.3°F2.4°C 36.1°F2.3°C 99% 1.2 mph WNW1.9 kmh WNW 5.8 mph9.3 kmh 30.11 in1019.6 mb - 0.00 in0.0 mm 0.00 in0.0 mm
07:30 AM 35.9°F2.2°C 35.6°F2.0°C 99% 2.3 mph WNW3.7 kmh WNW 5.8 mph9.3 kmh 30.12 in1020.0 mb - 0.00 in0.0 mm 0.00 in0.0 mm
07:40 AM 35.9°F2.2°C 35.6°F2.0°C 99% 3.5 mph NW5.6 kmh NW 6.9 mph11.1 kmh 30.12 in1020.0 mb - 0.00 in0.0 mm 0.00 in0.0 mm
07:50 AM 36.0°F2.2°C 35.7°F2.1°C 99% 3.5 mph NW5.6 kmh NW 5.8 mph9.3 kmh 30.12 in1020.0 mb - 0.00 in0.0 mm 0.00 in0.0 mm
08:00 AM 35.8°F2.1°C 35.5°F1.9°C 99% 4.6 mph NW7.4 kmh NW 5.8 mph9.3 kmh 30.13 in1020.3 mb - 0.00 in0.0 mm 0.00 in0.0 mm
08:10 AM 36.2°F2.3°C 35.9°F2.2°C 99% 5.8 mph NW9.3 kmh NW 8.1 mph13.0 kmh 30.13 in1020.3 mb - 0.00 in0.0 mm 0.00 in0.0 mm
08:20 AM 36.4°F2.4°C 36.1°F2.3°C 99% 6.9 mph NW11.1 kmh NW 11.5 mph18.5 kmh 30.14 in1020.7 mb - 0.00 in0.0 mm 0.00 in0.0 mm
08:30 AM 36.6°F2.6°C 36.4°F2.4°C 99% 5.8 mph NW9.3 kmh NW 8.1 mph13.0 kmh 30.15 in1021.0 mb - 0.00 in0.0 mm 0.00 in0.0 mm
08:40 AM 36.7°F2.6°C 36.4°F2.4°C 99% 5.8 mph NW9.3 kmh NW 8.1 mph13.0 kmh 30.15 in1021.0 mb - 0.00 in0.0 mm 0.00 in0.0 mm
08:50 AM 36.8°F2.7°C 36.5°F2.5°C 99% 5.8 mph NW9.3 kmh NW 8.1 mph13.0 kmh 30.16 in1021.3 mb - 0.00 in0.0 mm 0.00 in0.0 mm
09:00 AM 36.9°F2.7°C 36.6°F2.6°C 99% 3.5 mph NW5.6 kmh NW 6.9 mph11.1 kmh 30.16 in1021.3 mb - 0.00 in0.0 mm 0.00 in0.0 mm
09:10 AM 37.0°F2.8°C 36.8°F2.7°C 99% 3.5 mph NW5.6 kmh NW 6.9 mph11.1 kmh 30.17 in1021.7 mb - 0.00 in0.0 mm 0.00 in0.0 mm
09:20 AM 36.9°F2.7°C 36.6°F2.6°C 99% 2.3 mph NW3.7 kmh NW 5.8 mph9.3 kmh 30.17 in1021.7 mb - 0.00 in0.0 mm 0.00 in0.0 mm
09:30 AM 37.0°F2.8°C 36.7°F2.6°C 99% 2.3 mph NW3.7 kmh NW 4.6 mph7.4 kmh 30.17 in1021.7 mb - 0.00 in0.0 mm 0.00 in0.0 mm
09:40 AM 37.1°F2.8°C 36.8°F2.7°C 99% 2.3 mph NW3.7 kmh NW 5.8 mph9.3 kmh 30.17 in1021.7 mb - 0.00 in0.0 mm 0.00 in0.0 mm
09:50 AM 37.2°F2.9°C 37.0°F2.8°C 99% 3.5 mph NW5.6 kmh NW 6.9 mph11.1 kmh 30.18 in1022.0 mb - 0.00 in0.0 mm 0.00 in0.0 mm
10:00 AM 37.5°F3.1°C 37.2°F2.9°C 99% 4.6 mph NW7.4 kmh NW 6.9 mph11.1 kmh 30.19 in1022.4 mb - 0.00 in0.0 mm 0.00 in0.0 mm
10:10 AM 37.6°F3.1°C 37.3°F2.9°C 99% 2.3 mph NW3.7 kmh NW 2.3 mph3.7 kmh 30.19 in1022.4 mb - 0.00 in0.0 mm 0.00 in0.0 mm
10:20 AM 37.8°F3.2°C 37.5°F3.1°C 99% 3.5 mph NW5.6 kmh NW 5.8 mph9.3 kmh 30.20 in1022.7 mb - 0.00 in0.0 mm 0.00 in0.0 mm
10:30 AM 37.8°F3.2°C 37.5°F3.1°C 99% 4.6 mph NNW7.4 kmh NNW 6.9 mph11.1 kmh 30.20 in1022.7 mb - 0.00 in0.0 mm 0.00 in0.0 mm
10:40 AM 37.8°F3.2°C 37.5°F3.1°C 99% 3.5 mph NNW5.6 kmh NNW 6.9 mph11.1 kmh 30.20 in1022.7 mb - 0.00 in0.0 mm 0.00 in0.0 mm
10:50 AM 37.5°F3.1°C 37.2°F2.9°C 99% 3.5 mph NW5.6 kmh NW 5.8 mph9.3 kmh 30.20 in1022.7 mb - 0.00 in0.0 mm 0.00 in0.0 mm
11:00 AM 37.5°F3.1°C 37.2°F2.9°C 99% 4.6 mph NNW7.4 kmh NNW 5.8 mph9.3 kmh 30.21 in1023.0 mb - 0.00 in0.0 mm 0.00 in0.0 mm
11:10 AM 37.8°F3.2°C 37.5°F3.1°C 99% 4.6 mph NW7.4 kmh NW 6.9 mph11.1 kmh 30.21 in1023.0 mb - 0.00 in0.0 mm 0.00 in0.0 mm
11:20 AM 38.1°F3.4°C 37.8°F3.2°C 99% 2.3 mph NW3.7 kmh NW 5.8 mph9.3 kmh 30.21 in1023.0 mb - 0.00 in0.0 mm 0.00 in0.0 mm
11:30 AM 38.2°F3.4°C 37.9°F3.3°C 99% 4.6 mph NW7.4 kmh NW 5.8 mph9.3 kmh 30.21 in1023.0 mb - 0.00 in0.0 mm 0.00 in0.0 mm
11:40 AM 38.5°F3.6°C 38.2°F3.4°C 99% 2.3 mph NW3.7 kmh NW 5.8 mph9.3 kmh 30.21 in1023.0 mb - 0.00 in0.0 mm 0.00 in0.0 mm
11:50 AM 38.5°F3.6°C 38.2°F3.4°C 99% 3.5 mph NW5.6 kmh NW 5.8 mph9.3 kmh 30.22 in1023.4 mb - 0.00 in0.0 mm 0.00 in0.0 mm
12:00 PM 38.3°F3.5°C 38.1°F3.4°C 99% 5.8 mph NW9.3 kmh NW 6.9 mph11.1 kmh 30.22 in1023.4 mb - 0.00 in0.0 mm 0.00 in0.0 mm
12:10 PM 38.0°F3.3°C 37.7°F3.2°C 99% 5.8 mph NNW9.3 kmh NNW 8.1 mph13.0 kmh 30.23 in1023.7 mb - 0.00 in0.0 mm 0.00 in0.0 mm
12:20 PM 38.1°F3.4°C 37.8°F3.2°C 99% 3.5 mph NW5.6 kmh NW 5.8 mph9.3 kmh 30.24 in1024.0 mb - 0.00 in0.0 mm 0.00 in0.0 mm
12:30 PM 37.8°F3.2°C 37.6°F3.1°C 99% 5.8 mph NW9.3 kmh NW 8.1 mph13.0 kmh 30.24 in1024.0 mb - 0.00 in0.0 mm 0.00 in0.0 mm
12:40 PM 38.2°F3.4°C 37.9°F3.3°C 99% 3.5 mph N5.6 kmh N 5.8 mph9.3 kmh 30.24 in1024.0 mb - 0.00 in0.0 mm 0.00 in0.0 mm
12:50 PM 38.6°F3.7°C 38.3°F3.5°C 99% 2.3 mph NW3.7 kmh NW 5.8 mph9.3 kmh 30.23 in1023.7 mb - 0.00 in0.0 mm 0.00 in0.0 mm
01:00 PM 38.4°F3.6°C 38.2°F3.4°C 99% 4.6 mph NW7.4 kmh NW 5.8 mph9.3 kmh 30.23 in1023.7 mb - 0.00 in0.0 mm 0.00 in0.0 mm
01:10 PM 38.3°F3.5°C 38.0°F3.3°C 99% 3.5 mph NW5.6 kmh NW 5.8 mph9.3 kmh 30.24 in1024.0 mb - 0.00 in0.0 mm 0.00 in0.0 mm
01:20 PM 38.4°F3.6°C 38.2°F3.4°C 99% Calm Calm 2.3 mph3.7 kmh 30.23 in1023.7 mb - 0.00 in0.0 mm 0.00 in0.0 mm
01:30 PM 38.8°F3.8°C 38.5°F3.6°C 99% 2.3 mph NW3.7 kmh NW 5.8 mph9.3 kmh 30.23 in1023.7 mb - 0.00 in0.0 mm 0.00 in0.0 mm
01:40 PM 38.9°F3.8°C 38.6°F3.7°C 99% 2.3 mph NNW3.7 kmh NNW 5.8 mph9.3 kmh 30.23 in1023.7 mb - 0.00 in0.0 mm 0.00 in0.0 mm
01:50 PM 38.9°F3.8°C 38.9°F3.8°C 100% 2.3 mph NW3.7 kmh NW 5.8 mph9.3 kmh 30.23 in1023.7 mb - 0.00 in0.0 mm 0.00 in0.0 mm
02:00 PM 38.9°F3.8°C 38.9°F3.8°C 100% Calm Calm -- 30.23 in1023.7 mb - 0.00 in0.0 mm 0.00 in0.0 mm
02:10 PM 39.3°F4.1°C 39.3°F4.1°C 100% Calm Calm 2.3 mph3.7 kmh 30.23 in1023.7 mb - 0.00 in0.0 mm 0.00 in0.0 mm
02:20 PM 39.5°F4.2°C 39.5°F4.2°C 100% Calm Calm -- 30.23 in1023.7 mb - 0.00 in0.0 mm 0.00 in0.0 mm
02:30 PM 39.3°F4.1°C 39.3°F4.1°C 100% Calm Calm -- 30.23 in1023.7 mb - 0.00 in0.0 mm 0.00 in0.0 mm
02:40 PM 39.4°F4.1°C 39.4°F4.1°C 100% Calm Calm 2.3 mph3.7 kmh 30.23 in1023.7 mb - 0.00 in0.0 mm 0.00 in0.0 mm
02:50 PM 39.4°F4.1°C 39.4°F4.1°C 100% Calm Calm -- 30.22 in1023.4 mb - 0.00 in0.0 mm 0.00 in0.0 mm
03:00 PM 39.4°F4.1°C 39.4°F4.1°C 100% Calm Calm -- 30.22 in1023.4 mb - 0.00 in0.0 mm 0.00 in0.0 mm
03:10 PM 39.7°F4.3°C 39.7°F4.3°C 100% Calm Calm -- 30.22 in1023.4 mb - 0.00 in0.0 mm 0.00 in0.0 mm
03:20 PM 39.9°F4.4°C 39.9°F4.4°C 100% Calm Calm -- 30.22 in1023.4 mb - 0.00 in0.0 mm 0.00 in0.0 mm
03:30 PM 39.7°F4.3°C 39.8°F4.3°C 100% Calm Calm -- 30.22 in1023.4 mb - 0.00 in0.0 mm 0.00 in0.0 mm
03:40 PM 39.3°F4.1°C 39.3°F4.1°C 100% Calm Calm -- 30.21 in1023.0 mb - 0.00 in0.0 mm 0.00 in0.0 mm
03:50 PM 39.4°F4.1°C 39.4°F4.1°C 100% Calm Calm -- 30.21 in1023.0 mb - 0.00 in0.0 mm 0.00 in0.0 mm
04:00 PM 39.5°F4.2°C 39.5°F4.2°C 100% Calm Calm -- 30.22 in1023.4 mb - 0.00 in0.0 mm 0.00 in0.0 mm
04:10 PM 39.8°F4.3°C 39.8°F4.3°C 100% Calm Calm -- 30.22 in1023.4 mb - 0.00 in0.0 mm 0.00 in0.0 mm
04:20 PM 39.8°F4.3°C 39.8°F4.3°C 100% Calm Calm -- 30.22 in1023.4 mb - 0.00 in0.0 mm 0.00 in0.0 mm
04:30 PM 39.8°F4.3°C 39.8°F4.3°C 100% Calm Calm -- 30.22 in1023.4 mb - 0.00 in0.0 mm 0.00 in0.0 mm
04:40 PM 39.7°F4.3°C 39.7°F4.3°C 100% Calm Calm -- 30.23 in1023.7 mb - 0.00 in0.0 mm 0.00 in0.0 mm
04:50 PM 39.6°F4.2°C 39.6°F4.2°C 100% Calm Calm -- 30.23 in1023.7 mb - 0.00 in0.0 mm 0.00 in0.0 mm
05:00 PM 39.5°F4.2°C 39.5°F4.2°C 100% Calm Calm -- 30.24 in1024.0 mb - 0.00 in0.0 mm 0.00 in0.0 mm
05:10 PM 39.5°F4.2°C 39.5°F4.2°C 100% Calm Calm -- 30.24 in1024.0 mb - 0.00 in0.0 mm 0.00 in0.0 mm
05:20 PM 39.2°F4.0°C 39.2°F4.0°C 100% Calm Calm -- 30.25 in1024.4 mb - 0.00 in0.0 mm 0.00 in0.0 mm
05:30 PM 39.0°F3.9°C 39.0°F3.9°C 100% Calm Calm -- 30.26 in1024.7 mb - 0.00 in0.0 mm 0.00 in0.0 mm
05:40 PM 38.5°F3.6°C 38.5°F3.6°C 100% 2.3 mph W3.7 kmh W 4.6 mph7.4 kmh 30.26 in1024.7 mb - 0.00 in0.0 mm 0.00 in0.0 mm
05:50 PM 38.3°F3.5°C 38.3°F3.5°C 100% Calm Calm -- 30.27 in1025.1 mb - 0.00 in0.0 mm 0.00 in0.0 mm
06:00 PM 38.2°F3.4°C 38.2°F3.4°C 100% Calm Calm -- 30.27 in1025.1 mb - 0.00 in0.0 mm 0.00 in0.0 mm
06:10 PM 38.1°F3.4°C 38.1°F3.4°C 100% Calm Calm -- 30.27 in1025.1 mb - 0.00 in0.0 mm 0.00 in0.0 mm
06:20 PM 38.0°F3.3°C 38.0°F3.3°C 100% Calm Calm -- 30.26 in1024.7 mb - 0.00 in0.0 mm 0.00 in0.0 mm
06:30 PM 38.0°F3.3°C 38.0°F3.3°C 100% Calm Calm -- 30.27 in1025.1 mb - 0.00 in0.0 mm 0.00 in0.0 mm
06:40 PM 38.0°F3.3°C 38.0°F3.3°C 100% Calm Calm -- 30.27 in1025.1 mb - 0.00 in0.0 mm 0.00 in0.0 mm
06:50 PM 37.8°F3.2°C 37.8°F3.2°C 100% Calm Calm -- 30.27 in1025.1 mb - 0.00 in0.0 mm 0.00 in0.0 mm
07:00 PM 37.7°F3.2°C 37.7°F3.2°C 100% Calm Calm -- 30.27 in1025.1 mb - 0.00 in0.0 mm 0.00 in0.0 mm
07:10 PM 37.5°F3.1°C 37.5°F3.1°C 100% Calm Calm -- 30.27 in1025.1 mb - 0.00 in0.0 mm 0.00 in0.0 mm
07:20 PM 37.0°F2.8°C 37.1°F2.8°C 100% Calm Calm -- 30.27 in1025.1 mb - 0.00 in0.0 mm 0.00 in0.0 mm
07:30 PM 37.1°F2.8°C 37.1°F2.8°C 100% Calm Calm -- 30.27 in1025.1 mb - 0.01 in0.3 mm 0.01 in0.3 mm
07:40 PM 36.7°F2.6°C 36.7°F2.6°C 100% Calm Calm -- 30.27 in1025.1 mb - 0.00 in0.0 mm 0.01 in0.3 mm
07:50 PM 36.4°F2.4°C 36.4°F2.4°C 100% Calm Calm 2.3 mph3.7 kmh 30.27 in1025.1 mb - 0.00 in0.0 mm 0.01 in0.3 mm
08:00 PM 36.1°F2.3°C 36.1°F2.3°C 100% 1.2 mph SSE1.9 kmh SSE 2.3 mph3.7 kmh 30.27 in1025.1 mb - 0.00 in0.0 mm 0.01 in0.3 mm
08:10 PM 36.1°F2.3°C 36.1°F2.3°C 100% Calm Calm -- 30.27 in1025.1 mb - 0.00 in0.0 mm 0.01 in0.3 mm
08:20 PM 36.2°F2.3°C 36.2°F2.3°C 100% Calm Calm -- 30.27 in1025.1 mb - 0.00 in0.0 mm 0.01 in0.3 mm
08:30 PM 35.8°F2.1°C 35.8°F2.1°C 100% Calm Calm -- 30.27 in1025.1 mb - 0.00 in0.0 mm 0.01 in0.3 mm
08:40 PM 35.7°F2.1°C 35.7°F2.1°C 100% Calm Calm -- 30.27 in1025.1 mb - 0.00 in0.0 mm 0.01 in0.3 mm
08:50 PM 35.9°F2.2°C 35.9°F2.2°C 100% Calm Calm -- 30.27 in1025.1 mb - 0.00 in0.0 mm 0.01 in0.3 mm
09:00 PM 36.0°F2.2°C 36.0°F2.2°C 100% Calm Calm -- 30.27 in1025.1 mb - 0.00 in0.0 mm 0.01 in0.3 mm
09:10 PM 36.1°F2.3°C 36.1°F2.3°C 100% Calm Calm -- 30.27 in1025.1 mb - 0.00 in0.0 mm 0.01 in0.3 mm
09:20 PM 36.3°F2.4°C 36.3°F2.4°C 100% Calm Calm -- 30.27 in1025.1 mb - 0.00 in0.0 mm 0.01 in0.3 mm
09:30 PM 36.1°F2.3°C 36.1°F2.3°C 100% Calm Calm -- 30.27 in1025.1 mb - 0.00 in0.0 mm 0.01 in0.3 mm
09:40 PM 36.0°F2.2°C 36.0°F2.2°C 100% Calm Calm -- 30.27 in1025.1 mb - 0.00 in0.0 mm 0.01 in0.3 mm
09:50 PM 35.9°F2.2°C 35.9°F2.2°C 100% Calm Calm -- 30.27 in1025.1 mb - 0.00 in0.0 mm 0.01 in0.3 mm
10:00 PM 35.9°F2.2°C 35.9°F2.2°C 100% Calm Calm -- 30.27 in1025.1 mb - 0.00 in0.0 mm 0.01 in0.3 mm
10:10 PM 36.0°F2.2°C 36.0°F2.2°C 100% 2.3 mph E3.7 kmh E 2.3 mph3.7 kmh 30.27 in1025.1 mb - 0.00 in0.0 mm 0.01 in0.3 mm
10:20 PM 36.1°F2.3°C 36.1°F2.3°C 100% Calm Calm 2.3 mph3.7 kmh 30.27 in1025.1 mb - 0.00 in0.0 mm 0.01 in0.3 mm
10:30 PM 36.1°F2.3°C 36.1°F2.3°C 100% 3.5 mph E5.6 kmh E 5.8 mph9.3 kmh 30.26 in1024.7 mb - 0.00 in0.0 mm 0.01 in0.3 mm
10:40 PM 36.2°F2.3°C 36.2°F2.3°C 100% Calm Calm 2.3 mph3.7 kmh 30.26 in1024.7 mb - 0.00 in0.0 mm 0.01 in0.3 mm
10:50 PM 36.3°F2.4°C 36.3°F2.4°C 100% Calm Calm -- 30.26 in1024.7 mb - 0.00 in0.0 mm 0.01 in0.3 mm
11:00 PM 36.1°F2.3°C 36.1°F2.3°C 100% Calm Calm 3.5 mph5.6 kmh 30.26 in1024.7 mb - 0.00 in0.0 mm 0.01 in0.3 mm
11:10 PM 36.0°F2.2°C 36.0°F2.2°C 100% Calm Calm -- 30.26 in1024.7 mb - 0.00 in0.0 mm 0.01 in0.3 mm
11:20 PM 36.0°F2.2°C 36.0°F2.2°C 100% Calm Calm -- 30.26 in1024.7 mb - 0.00 in0.0 mm 0.01 in0.3 mm
11:30 PM 36.1°F2.3°C 36.1°F2.3°C 100% Calm Calm -- 30.26 in1024.7 mb - 0.00 in0.0 mm 0.01 in0.3 mm
11:40 PM 36.2°F2.3°C 36.2°F2.3°C 100% Calm Calm -- 30.26 in1024.7 mb - 0.00 in0.0 mm 0.01 in0.3 mm
11:50 PM 36.3°F2.4°C 36.3°F2.4°C 100% Calm Calm -- 30.26 in1024.7 mb - 0.00 in0.0 mm 0.01 in0.3 mm